createdAt,value
2022-10-04T00:00:18.416Z,93
2022-10-04T00:01:24.695Z,93
2022-10-04T00:02:30.965Z,93
2022-10-04T00:03:36.318Z,92.5
2022-10-04T00:04:41.553Z,92.5
2022-10-04T00:05:47.816Z,92
2022-10-04T00:06:54.085Z,92
2022-10-04T00:08:00.370Z,92
2022-10-04T00:09:06.638Z,92
2022-10-04T00:10:12.907Z,91.5
2022-10-04T00:11:19.247Z,91.5
2022-10-04T00:12:25.446Z,92
2022-10-04T00:13:31.729Z,91.5
2022-10-04T00:14:38.024Z,92
2022-10-04T00:15:44.286Z,92
2022-10-04T00:16:50.582Z,92
2022-10-04T00:17:56.811Z,92
2022-10-04T00:19:02.104Z,92
2022-10-04T00:20:08.373Z,92
2022-10-04T00:21:14.648Z,92
2022-10-04T00:22:20.955Z,92
2022-10-04T00:23:27.197Z,91.5
2022-10-04T00:24:33.469Z,91.5
2022-10-04T00:25:39.732Z,91.5
2022-10-04T00:26:45.041Z,92
2022-10-04T00:27:50.333Z,92.5
2022-10-04T00:28:56.610Z,93
2022-10-04T00:30:01.893Z,93.5
2022-10-04T00:31:07.175Z,94
2022-10-04T00:32:13.445Z,94
2022-10-04T00:33:19.731Z,94
2022-10-04T00:34:26.002Z,94.5
2022-10-04T00:35:32.272Z,94.5
2022-10-04T00:36:38.575Z,95
2022-10-04T00:37:44.821Z,95
2022-10-04T00:38:51.087Z,95.5
2022-10-04T00:39:57.370Z,95.5
2022-10-04T00:41:03.626Z,95.5
2022-10-04T00:42:09.907Z,95
2022-10-04T00:43:16.171Z,95
2022-10-04T00:44:22.443Z,95
2022-10-04T00:45:27.731Z,95
2022-10-04T00:46:34.006Z,95
2022-10-04T00:47:40.309Z,95.5
2022-10-04T00:48:46.552Z,95
2022-10-04T00:49:52.822Z,95
2022-10-04T00:50:59.100Z,95
2022-10-04T00:52:05.373Z,95
2022-10-04T00:53:10.668Z,94.5
2022-10-04T00:54:15.957Z,94
2022-10-04T00:55:22.231Z,94
2022-10-04T00:56:28.516Z,94
2022-10-04T00:57:34.769Z,93.5
2022-10-04T00:58:41.047Z,93.5
2022-10-04T00:59:47.337Z,93.5
2022-10-04T01:00:53.602Z,93
2022-10-04T01:01:59.858Z,93
2022-10-04T01:03:06.135Z,93
2022-10-04T01:04:12.408Z,93
2022-10-04T01:05:18.687Z,93
2022-10-04T01:06:24.947Z,92.5
2022-10-04T01:07:31.220Z,92.5
2022-10-04T01:08:36.510Z,92.5
2022-10-04T01:09:42.793Z,92.5
2022-10-04T01:10:49.053Z,92.5
2022-10-04T01:11:55.324Z,92.5
2022-10-04T01:13:01.603Z,92.5
2022-10-04T01:14:07.866Z,92.5
2022-10-04T01:15:14.149Z,92.5
2022-10-04T01:16:19.443Z,92.5
2022-10-04T01:17:24.727Z,92.5
2022-10-04T01:18:30.020Z,92.5
2022-10-04T01:19:35.315Z,92.5
2022-10-04T01:20:40.613Z,92.5
2022-10-04T01:21:45.943Z,92
2022-10-04T01:22:52.181Z,92
2022-10-04T01:23:58.447Z,92
2022-10-04T01:25:04.728Z,91.5
2022-10-04T01:26:10.991Z,91.5
2022-10-04T01:27:17.265Z,91
2022-10-04T01:28:23.533Z,91
2022-10-04T01:29:29.804Z,91
2022-10-04T01:30:36.078Z,91.5
2022-10-04T01:31:42.350Z,92
2022-10-04T01:32:48.662Z,92
2022-10-04T01:33:54.922Z,92
2022-10-04T01:35:01.196Z,92
2022-10-04T01:36:06.454Z,92
2022-10-04T01:37:12.728Z,92.5
2022-10-04T01:38:19.003Z,92.5
2022-10-04T01:39:25.350Z,92.5
2022-10-04T01:40:31.549Z,92.5
2022-10-04T01:41:37.828Z,92.5
2022-10-04T01:42:44.110Z,92.5
2022-10-04T01:43:49.391Z,92.5
2022-10-04T01:44:54.684Z,92.5
2022-10-04T01:45:59.978Z,92.5
2022-10-04T01:47:05.275Z,92
2022-10-04T01:48:11.571Z,92
2022-10-04T01:49:17.810Z,91.5
2022-10-04T01:50:24.147Z,91.5
2022-10-04T01:51:30.361Z,91.5
2022-10-04T01:52:36.630Z,91.5
2022-10-04T01:53:42.923Z,91.5
2022-10-04T01:54:49.181Z,91.5
2022-10-04T01:55:55.440Z,91.5
2022-10-04T01:57:01.714Z,91.5
2022-10-04T01:58:07.995Z,91.5
2022-10-04T01:59:14.273Z,91.5
2022-10-04T02:00:20.533Z,91.5
2022-10-04T02:01:25.819Z,91.5
2022-10-04T02:02:32.102Z,91
2022-10-04T02:03:38.364Z,91
2022-10-04T02:04:44.637Z,91
2022-10-04T02:05:50.911Z,91
2022-10-04T02:06:57.186Z,91
2022-10-04T02:08:03.459Z,91.5
2022-10-04T02:09:08.761Z,91.5
2022-10-04T02:10:14.054Z,91
2022-10-04T02:11:20.315Z,91
2022-10-04T02:12:26.585Z,91.5
2022-10-04T02:13:32.862Z,91.5
2022-10-04T02:14:39.131Z,91.5
2022-10-04T02:15:45.405Z,91.5
2022-10-04T02:16:51.679Z,91.5
2022-10-04T02:17:57.949Z,91.5
2022-10-04T02:19:04.225Z,91.5
2022-10-04T02:20:10.498Z,91.5
2022-10-04T02:21:16.763Z,91.5
2022-10-04T02:22:23.044Z,91.5
2022-10-04T02:23:29.309Z,91
2022-10-04T02:24:34.603Z,91
2022-10-04T02:25:40.906Z,91
2022-10-04T02:26:47.148Z,91.5
2022-10-04T02:27:53.425Z,91.5
2022-10-04T02:28:59.689Z,91.5
2022-10-04T02:30:05.983Z,91.5
2022-10-04T02:31:12.234Z,91.5
2022-10-04T02:32:17.531Z,91.5
2022-10-04T02:33:22.829Z,91.5
2022-10-04T02:34:28.126Z,91
2022-10-04T02:35:33.426Z,91
2022-10-04T02:36:39.721Z,91.5
2022-10-04T02:37:45.957Z,91.5
2022-10-04T02:38:52.258Z,91
2022-10-04T02:39:58.495Z,91
2022-10-04T02:41:04.776Z,91.5
2022-10-04T02:42:11.110Z,91.5
2022-10-04T02:43:17.357Z,91.5
2022-10-04T02:44:23.605Z,91.5
2022-10-04T02:45:29.858Z,91.5
2022-10-04T02:46:36.129Z,91.5
2022-10-04T02:47:42.454Z,91.5
2022-10-04T02:48:48.675Z,91.5
2022-10-04T02:49:53.963Z,91.5
2022-10-04T02:51:00.234Z,91.5
2022-10-04T02:52:06.511Z,91.5
2022-10-04T02:53:12.841Z,91.5
2022-10-04T02:54:19.078Z,91.5
2022-10-04T02:55:25.322Z,91.5
2022-10-04T02:56:31.628Z,91.5
2022-10-04T02:57:36.899Z,91.5
2022-10-04T02:58:42.198Z,91.5
2022-10-04T02:59:47.493Z,92
2022-10-04T03:00:52.772Z,91.5
2022-10-04T03:01:58.070Z,91.5
2022-10-04T03:03:03.394Z,91.5
2022-10-04T03:04:09.627Z,92
2022-10-04T03:05:15.929Z,92
2022-10-04T03:06:22.172Z,92
2022-10-04T03:07:28.443Z,92
2022-10-04T03:08:34.725Z,92
2022-10-04T03:09:40.984Z,91.5
2022-10-04T03:10:47.258Z,91.5
2022-10-04T03:11:53.532Z,91.5
2022-10-04T03:12:59.810Z,91.5
2022-10-04T03:14:06.164Z,91
2022-10-04T03:15:12.351Z,91
2022-10-04T03:16:18.630Z,91
2022-10-04T03:17:23.970Z,90.5
2022-10-04T03:18:30.238Z,91
2022-10-04T03:19:36.497Z,91
2022-10-04T03:20:42.754Z,91
2022-10-04T03:21:49.009Z,90.5
2022-10-04T03:22:55.279Z,90.5
2022-10-04T03:24:01.553Z,90.5
2022-10-04T03:25:06.851Z,91
2022-10-04T03:26:12.132Z,91.5
2022-10-04T03:27:17.443Z,92
2022-10-04T03:28:22.723Z,92
2022-10-04T03:29:29.012Z,92.5
2022-10-04T03:30:35.275Z,93
2022-10-04T03:31:40.563Z,93
2022-10-04T03:32:46.840Z,93.5
2022-10-04T03:33:53.107Z,93.5
2022-10-04T03:34:59.374Z,93.5
2022-10-04T03:36:05.648Z,93.5
2022-10-04T03:37:11.975Z,93.5
2022-10-04T03:38:18.248Z,93.5
2022-10-04T03:39:24.464Z,93
2022-10-04T03:40:30.740Z,93
2022-10-04T03:41:37.025Z,93
2022-10-04T03:42:43.289Z,93
2022-10-04T03:43:49.549Z,92.5
2022-10-04T03:44:55.851Z,92.5
2022-10-04T03:46:01.122Z,92.5
2022-10-04T03:47:07.399Z,92.5
2022-10-04T03:48:13.659Z,92.5
2022-10-04T03:49:19.932Z,92.5
2022-10-04T03:50:25.229Z,92.5
2022-10-04T03:51:30.519Z,92.5
2022-10-04T03:52:35.824Z,92
2022-10-04T03:53:41.106Z,92
2022-10-04T03:54:47.374Z,92
2022-10-04T03:55:53.650Z,92
2022-10-04T03:56:59.923Z,92
2022-10-04T03:58:06.201Z,92
2022-10-04T03:59:12.464Z,92
2022-10-04T04:00:18.739Z,92
2022-10-04T04:01:25.019Z,92
2022-10-04T04:02:31.279Z,92
2022-10-04T04:03:37.558Z,91.5
2022-10-04T04:04:43.824Z,91.5
2022-10-04T04:05:50.104Z,91.5
2022-10-04T04:06:56.366Z,90.5
2022-10-04T04:08:01.664Z,90
2022-10-04T04:09:07.929Z,90.5
2022-10-04T04:10:14.200Z,91
2022-10-04T04:11:20.480Z,91
2022-10-04T04:12:26.747Z,91.5
2022-10-04T04:13:33.020Z,92
2022-10-04T04:14:39.291Z,92.5
2022-10-04T04:15:44.593Z,93
2022-10-04T04:16:49.876Z,93
2022-10-04T04:17:55.182Z,93
2022-10-04T04:19:00.467Z,93
2022-10-04T04:20:06.743Z,93
2022-10-04T04:21:13.012Z,93
2022-10-04T04:22:19.311Z,93
2022-10-04T04:23:25.559Z,93
2022-10-04T04:24:31.825Z,93
2022-10-04T04:25:38.097Z,93
2022-10-04T04:26:44.372Z,93
2022-10-04T04:27:50.651Z,93
2022-10-04T04:28:56.920Z,93
2022-10-04T04:30:03.187Z,92.5
2022-10-04T04:31:09.460Z,92.5
2022-10-04T04:32:15.736Z,92.5
2022-10-04T04:33:21.015Z,92
2022-10-04T04:34:27.289Z,92
2022-10-04T04:35:33.567Z,92
2022-10-04T04:36:39.870Z,92
2022-10-04T04:37:46.112Z,92
2022-10-04T04:38:52.380Z,92
2022-10-04T04:39:58.680Z,92.5
2022-10-04T04:41:03.959Z,92.5
2022-10-04T04:42:09.272Z,92.5
2022-10-04T04:43:14.544Z,92.5
2022-10-04T04:44:19.848Z,92.5
2022-10-04T04:45:26.102Z,92.5
2022-10-04T04:46:32.374Z,92.5
2022-10-04T04:47:38.652Z,92.5
2022-10-04T04:48:44.913Z,92.5
2022-10-04T04:49:51.205Z,92.5
2022-10-04T04:50:57.464Z,92.5
2022-10-04T04:52:03.756Z,92.5
2022-10-04T04:53:10.030Z,92.5
2022-10-04T04:54:16.288Z,92.5
2022-10-04T04:55:22.544Z,92.5
2022-10-04T04:56:28.844Z,92.5
2022-10-04T04:57:35.103Z,92.5
2022-10-04T04:58:40.388Z,92.5
2022-10-04T04:59:46.653Z,92.5
2022-10-04T05:00:52.926Z,92
2022-10-04T05:01:59.204Z,92
2022-10-04T05:03:05.475Z,91.5
2022-10-04T05:04:11.745Z,91.5
2022-10-04T05:05:18.013Z,91.5
2022-10-04T05:06:23.328Z,92
2022-10-04T05:07:28.609Z,92
2022-10-04T05:08:34.882Z,92
2022-10-04T05:09:41.171Z,92
2022-10-04T05:10:47.416Z,92.5
2022-10-04T05:11:53.700Z,92.5
2022-10-04T05:12:59.970Z,92.5
2022-10-04T05:14:06.268Z,92.5
2022-10-04T05:15:12.509Z,92.5
2022-10-04T05:16:18.780Z,92.5
2022-10-04T05:17:25.056Z,93
2022-10-04T05:18:31.338Z,93
2022-10-04T05:19:37.603Z,93
2022-10-04T05:20:43.874Z,93
2022-10-04T05:21:49.162Z,93
2022-10-04T05:22:55.442Z,93
2022-10-04T05:24:01.708Z,93
2022-10-04T05:25:07.973Z,93
2022-10-04T05:26:14.262Z,93.5
2022-10-04T05:27:20.521Z,93.5
2022-10-04T05:28:26.788Z,93.5
2022-10-04T05:29:33.065Z,94
2022-10-04T05:30:38.365Z,94
2022-10-04T05:31:43.648Z,94
2022-10-04T05:32:48.951Z,94
2022-10-04T05:33:54.237Z,94
2022-10-04T05:35:00.536Z,94
2022-10-04T05:36:05.810Z,94
2022-10-04T05:37:11.103Z,94
2022-10-04T05:38:17.367Z,94
2022-10-04T05:39:23.673Z,94
2022-10-04T05:40:29.913Z,94
2022-10-04T05:41:36.189Z,94
2022-10-04T05:42:42.546Z,94
2022-10-04T05:43:48.765Z,94
2022-10-04T05:44:55.027Z,94
2022-10-04T05:46:01.279Z,94
2022-10-04T05:47:07.560Z,94
2022-10-04T05:48:13.816Z,94
2022-10-04T05:49:20.093Z,94
2022-10-04T05:50:26.365Z,94
2022-10-04T05:51:31.686Z,93.5
2022-10-04T05:52:37.927Z,94
2022-10-04T05:53:44.197Z,93.5
2022-10-04T05:54:50.473Z,93.5
2022-10-04T05:55:56.743Z,93.5
2022-10-04T05:57:03.074Z,93.5
2022-10-04T05:58:09.289Z,93.5
2022-10-04T05:59:14.591Z,93.5
2022-10-04T06:00:19.879Z,93
2022-10-04T06:01:26.145Z,93
2022-10-04T06:02:32.416Z,93
2022-10-04T06:03:37.720Z,93
2022-10-04T06:04:43.011Z,93
2022-10-04T06:05:49.283Z,93
2022-10-04T06:06:55.555Z,93
2022-10-04T06:08:01.873Z,93
2022-10-04T06:09:08.095Z,93
2022-10-04T06:10:14.363Z,93
2022-10-04T06:11:20.674Z,93
2022-10-04T06:12:26.959Z,92.5
2022-10-04T06:13:33.187Z,92.5
2022-10-04T06:14:39.455Z,92.5
2022-10-04T06:15:45.731Z,92.5
2022-10-04T06:16:52.004Z,92.5
2022-10-04T06:17:58.272Z,92.5
2022-10-04T06:19:03.559Z,92.5
2022-10-04T06:20:09.863Z,92.5
2022-10-04T06:21:16.112Z,92.5
2022-10-04T06:22:22.379Z,92.5
2022-10-04T06:23:28.654Z,92.5
2022-10-04T06:24:34.933Z,93
2022-10-04T06:25:41.200Z,93
2022-10-04T06:26:46.504Z,93
2022-10-04T06:27:51.783Z,93
2022-10-04T06:28:58.064Z,92.5
2022-10-04T06:30:04.373Z,92.5
2022-10-04T06:31:10.597Z,92.5
2022-10-04T06:32:16.888Z,92.5
2022-10-04T06:33:23.188Z,92.5
2022-10-04T06:34:29.420Z,92.5
2022-10-04T06:35:35.707Z,92
2022-10-04T06:36:41.965Z,92
2022-10-04T06:37:48.238Z,92
2022-10-04T06:38:54.504Z,92
2022-10-04T06:40:00.813Z,91.5
2022-10-04T06:41:07.055Z,91.5
2022-10-04T06:42:12.356Z,91.5
2022-10-04T06:43:18.610Z,91.5
2022-10-04T06:44:24.943Z,91
2022-10-04T06:45:31.156Z,91.5
2022-10-04T06:46:37.430Z,91.5
2022-10-04T06:47:43.702Z,91.5
2022-10-04T06:48:49.992Z,91.5
2022-10-04T06:49:56.260Z,91.5
2022-10-04T06:51:01.552Z,91.5
2022-10-04T06:52:07.844Z,91.5
2022-10-04T06:53:13.118Z,91.5
2022-10-04T06:54:18.400Z,91.5
2022-10-04T06:55:24.675Z,91.5
2022-10-04T06:56:30.987Z,91.5
2022-10-04T06:57:37.248Z,91.5
2022-10-04T06:58:43.550Z,91.5
2022-10-04T06:59:49.803Z,91
2022-10-04T07:00:56.043Z,91
2022-10-04T07:02:02.308Z,91
2022-10-04T07:03:08.584Z,90.5
2022-10-04T07:04:14.855Z,90.5
2022-10-04T07:05:21.134Z,90.5
2022-10-04T07:06:27.399Z,90.5
2022-10-04T07:07:33.669Z,91
2022-10-04T07:08:38.962Z,91
2022-10-04T07:09:45.228Z,90.5
2022-10-04T07:10:51.505Z,90.5
2022-10-04T07:11:57.810Z,90.5
2022-10-04T07:13:03.142Z,90
2022-10-04T07:14:09.358Z,90
2022-10-04T07:15:15.614Z,90
2022-10-04T07:16:21.891Z,90
2022-10-04T07:17:28.155Z,89.5
2022-10-04T07:18:34.453Z,90
2022-10-04T07:19:40.709Z,90
2022-10-04T07:20:46.995Z,90
2022-10-04T07:21:53.293Z,90.5
2022-10-04T07:22:59.520Z,90
2022-10-04T07:24:05.789Z,89.5
2022-10-04T07:25:12.149Z,89.5
2022-10-04T07:26:18.336Z,89.5
2022-10-04T07:27:23.649Z,90
2022-10-04T07:28:29.898Z,90
2022-10-04T07:29:36.171Z,90
2022-10-04T07:30:42.450Z,90.5
2022-10-04T07:31:48.718Z,90.5
2022-10-04T07:32:54.995Z,90.5
2022-10-04T07:34:01.319Z,90.5
2022-10-04T07:35:07.551Z,90
2022-10-04T07:36:13.821Z,90
2022-10-04T07:37:20.133Z,90.5
2022-10-04T07:38:26.348Z,90.5
2022-10-04T07:39:32.622Z,91
2022-10-04T07:40:38.916Z,90.5
2022-10-04T07:41:44.179Z,90.5
2022-10-04T07:42:50.564Z,90.5
2022-10-04T07:43:56.724Z,90.5
2022-10-04T07:45:02.994Z,90.5
2022-10-04T07:46:09.267Z,90.5
2022-10-04T07:47:15.541Z,90.5
2022-10-04T07:48:21.823Z,90.5
2022-10-04T07:49:28.097Z,90.5
2022-10-04T07:50:34.359Z,90
2022-10-04T07:51:40.775Z,90
2022-10-04T07:52:46.926Z,90
2022-10-04T07:53:53.196Z,90
2022-10-04T07:54:59.450Z,90
2022-10-04T07:56:04.781Z,90
2022-10-04T07:57:11.004Z,90
2022-10-04T07:58:17.361Z,90
2022-10-04T07:59:23.605Z,89.5
2022-10-04T08:00:29.827Z,89
2022-10-04T08:01:36.094Z,89
2022-10-04T08:02:42.428Z,89
2022-10-04T08:03:48.660Z,89.5
2022-10-04T08:04:55.000Z,89.5
2022-10-04T08:06:00.211Z,90
2022-10-04T08:07:05.554Z,88.5
2022-10-04T08:08:11.872Z,89
2022-10-04T08:09:17.102Z,89.5
2022-10-04T08:10:22.370Z,89.5
2022-10-04T08:11:28.645Z,89.5
2022-10-04T08:12:34.895Z,89.5
2022-10-04T08:13:41.223Z,89.5
2022-10-04T08:14:47.444Z,90
2022-10-04T08:15:53.720Z,89.5
2022-10-04T08:17:00.070Z,89.5
2022-10-04T08:18:06.280Z,89.5
2022-10-04T08:19:12.533Z,89
2022-10-04T08:20:18.904Z,89
2022-10-04T08:21:25.105Z,89
2022-10-04T08:22:31.362Z,89
2022-10-04T08:23:37.619Z,89
2022-10-04T08:24:42.918Z,89
2022-10-04T08:25:49.183Z,89
2022-10-04T08:26:55.510Z,88.5
2022-10-04T08:28:01.732Z,88.5
2022-10-04T08:29:08.020Z,89
2022-10-04T08:30:14.273Z,89
2022-10-04T08:31:20.544Z,89
2022-10-04T08:32:26.845Z,88.5
2022-10-04T08:33:33.083Z,88.5
2022-10-04T08:34:38.389Z,88.5
2022-10-04T08:35:43.674Z,88.5
2022-10-04T08:36:49.964Z,88
2022-10-04T08:37:56.233Z,88
2022-10-04T08:39:02.481Z,87.5
2022-10-04T08:40:07.790Z,88
2022-10-04T08:41:14.088Z,88.5
2022-10-04T08:42:19.414Z,87.5
2022-10-04T08:43:25.624Z,87
2022-10-04T08:44:31.899Z,87.5
2022-10-04T08:45:38.175Z,87
2022-10-04T08:46:44.445Z,87.5
2022-10-04T08:47:50.714Z,87
2022-10-04T08:48:56.999Z,87
2022-10-04T08:50:03.250Z,86.5
2022-10-04T08:51:09.520Z,87
2022-10-04T08:52:15.798Z,87.5
2022-10-04T08:53:22.074Z,87.5
2022-10-04T08:54:28.366Z,87.5
2022-10-04T08:55:34.651Z,87.5
2022-10-04T08:56:39.922Z,87.5
2022-10-04T08:57:46.170Z,88
2022-10-04T08:58:52.460Z,87.5
2022-10-04T08:59:58.717Z,87.5
2022-10-04T09:01:04.987Z,87.5
2022-10-04T09:02:11.287Z,87
2022-10-04T09:03:16.564Z,87
2022-10-04T09:04:21.847Z,87
2022-10-04T09:05:28.133Z,86.5
2022-10-04T09:06:34.537Z,86
2022-10-04T09:07:40.726Z,86.5
2022-10-04T09:08:45.973Z,85.5
2022-10-04T09:09:51.281Z,85.5
2022-10-04T09:10:57.527Z,84.5
2022-10-04T09:12:03.905Z,86.5
2022-10-04T09:13:10.069Z,84
2022-10-04T09:14:16.335Z,87
2022-10-04T09:15:22.668Z,86.5
2022-10-04T09:16:28.975Z,86
2022-10-04T09:17:35.172Z,86
2022-10-04T09:18:41.493Z,85.5
2022-10-04T09:19:47.716Z,85
2022-10-04T09:20:53.974Z,84.5
2022-10-04T09:22:00.245Z,84.5
2022-10-04T09:23:06.521Z,84.5
2022-10-04T09:24:11.829Z,84
2022-10-04T09:25:18.112Z,83
2022-10-04T09:26:24.356Z,83
2022-10-04T09:27:30.627Z,82.5
2022-10-04T09:28:36.918Z,83.5
2022-10-04T09:29:43.171Z,84
2022-10-04T09:30:49.442Z,84.5
2022-10-04T09:31:55.713Z,84
2022-10-04T09:33:01.989Z,83
2022-10-04T09:34:08.264Z,83.5
2022-10-04T09:35:14.575Z,82.5
2022-10-04T09:36:20.835Z,83
2022-10-04T09:37:27.083Z,86
2022-10-04T09:38:32.364Z,84
2022-10-04T09:39:38.644Z,84.5
2022-10-04T09:40:43.950Z,83
2022-10-04T09:41:49.243Z,84.5
2022-10-04T09:42:55.499Z,85.5
2022-10-04T09:44:01.775Z,83
2022-10-04T09:45:07.105Z,82.5
2022-10-04T09:46:12.369Z,82.5
2022-10-04T09:47:18.659Z,83.5
2022-10-04T09:48:24.902Z,83.5
2022-10-04T09:49:31.173Z,83
2022-10-04T09:50:37.443Z,82
2022-10-04T09:51:43.724Z,82
2022-10-04T09:52:49.987Z,82.5
2022-10-04T09:53:56.260Z,82
2022-10-04T09:55:02.550Z,81.5
2022-10-04T09:56:08.796Z,82.5
2022-10-04T09:57:15.102Z,81.5
2022-10-04T09:58:21.346Z,81.5
2022-10-04T09:59:27.625Z,84
2022-10-04T10:00:32.902Z,83
2022-10-04T10:01:39.196Z,82
2022-10-04T10:02:45.456Z,82.5
2022-10-04T10:03:51.749Z,84
2022-10-04T10:04:57.995Z,85
2022-10-04T10:06:04.270Z,82.5
2022-10-04T10:07:10.533Z,82.5
2022-10-04T10:08:15.879Z,83.5
2022-10-04T10:09:21.224Z,83.5
2022-10-04T10:10:26.432Z,84
2022-10-04T10:11:31.820Z,82
2022-10-04T10:12:38.015Z,82.5
2022-10-04T10:13:44.372Z,83
2022-10-04T10:14:50.556Z,85
2022-10-04T10:15:56.797Z,82
2022-10-04T10:17:03.151Z,81
2022-10-04T10:18:09.427Z,80
2022-10-04T10:19:15.726Z,81.5
2022-10-04T10:20:21.890Z,80.5
2022-10-04T10:21:28.163Z,78.5
2022-10-04T10:22:34.526Z,79.5
2022-10-04T10:23:40.713Z,78
2022-10-04T10:24:47.011Z,79.5
2022-10-04T10:25:52.265Z,81.5
2022-10-04T10:26:58.549Z,78
2022-10-04T10:28:04.823Z,78
2022-10-04T10:29:11.152Z,77.5
2022-10-04T10:30:17.382Z,76
2022-10-04T10:31:23.647Z,76
2022-10-04T10:32:29.900Z,76
2022-10-04T10:33:35.195Z,74.5
2022-10-04T10:34:40.483Z,75
2022-10-04T10:35:45.799Z,76
2022-10-04T10:36:51.132Z,76
2022-10-04T10:37:57.339Z,77
2022-10-04T10:39:03.632Z,76.5
2022-10-04T10:40:09.951Z,76.5
2022-10-04T10:41:16.187Z,74
2022-10-04T10:42:22.462Z,74.5
2022-10-04T10:43:28.706Z,76.5
2022-10-04T10:44:34.978Z,77
2022-10-04T10:45:41.284Z,75.5
2022-10-04T10:46:47.567Z,76
2022-10-04T10:47:53.821Z,77
2022-10-04T10:49:00.066Z,77.5
2022-10-04T10:50:06.330Z,75
2022-10-04T10:51:11.645Z,74.5
2022-10-04T10:52:17.898Z,72.5
2022-10-04T10:53:24.168Z,73.5
2022-10-04T10:54:29.460Z,75
2022-10-04T10:55:35.733Z,75
2022-10-04T10:56:42.011Z,73
2022-10-04T10:57:48.319Z,73.5
2022-10-04T10:58:53.606Z,76
2022-10-04T10:59:59.873Z,75
2022-10-04T11:01:05.144Z,75.5
2022-10-04T11:02:10.439Z,76.5
2022-10-04T11:03:16.708Z,75.5
2022-10-04T11:04:22.979Z,72.5
2022-10-04T11:05:29.250Z,73
2022-10-04T11:06:35.692Z,74
2022-10-04T11:07:41.851Z,75
2022-10-04T11:08:48.075Z,74.5
2022-10-04T11:09:54.339Z,74
2022-10-04T11:11:00.629Z,74.5
2022-10-04T11:12:06.906Z,76
2022-10-04T11:13:13.158Z,72.5
2022-10-04T11:14:19.450Z,75.5
2022-10-04T11:15:25.696Z,74.5
2022-10-04T11:16:31.028Z,74
2022-10-04T11:17:37.259Z,74
2022-10-04T11:18:43.530Z,75
2022-10-04T11:19:49.859Z,73
2022-10-04T11:20:56.093Z,74
2022-10-04T11:22:02.357Z,73.5
2022-10-04T11:23:08.617Z,73.5
2022-10-04T11:24:14.926Z,72.5
2022-10-04T11:25:21.162Z,73
2022-10-04T11:26:27.438Z,73
2022-10-04T11:27:33.799Z,72.5
2022-10-04T11:28:39.035Z,72.5
2022-10-04T11:29:44.404Z,72
2022-10-04T11:30:50.632Z,71.5
2022-10-04T11:31:56.837Z,72
2022-10-04T11:33:02.139Z,72.5
2022-10-04T11:34:07.426Z,71
2022-10-04T11:35:13.731Z,72
2022-10-04T11:36:20.003Z,71
2022-10-04T11:37:26.240Z,71
2022-10-04T11:38:32.542Z,72
2022-10-04T11:39:38.789Z,70.5
2022-10-04T11:40:45.053Z,71.5
2022-10-04T11:41:51.357Z,71
2022-10-04T11:42:57.611Z,71
2022-10-04T11:44:03.910Z,69
2022-10-04T11:45:10.164Z,68
2022-10-04T11:46:16.432Z,69.5
2022-10-04T11:47:22.687Z,70
2022-10-04T11:48:28.038Z,71.5
2022-10-04T11:49:34.293Z,72.5
2022-10-04T11:50:40.526Z,74.5
2022-10-04T11:51:46.911Z,72.5
2022-10-04T11:52:53.105Z,71.5
2022-10-04T11:53:59.336Z,73
2022-10-04T11:55:05.612Z,72.5
2022-10-04T11:56:10.913Z,71.5
2022-10-04T11:57:16.319Z,69.5
2022-10-04T11:58:21.498Z,71.5
2022-10-04T11:59:26.779Z,70.5
2022-10-04T12:00:33.059Z,72
2022-10-04T12:01:39.346Z,72.5
2022-10-04T12:02:45.600Z,72.5
2022-10-04T12:03:51.904Z,72.5
2022-10-04T12:04:58.163Z,71.5
2022-10-04T12:06:04.418Z,71.5
2022-10-04T12:07:10.698Z,72
2022-10-04T12:08:17.077Z,70
2022-10-04T12:09:23.247Z,71
2022-10-04T12:10:29.536Z,71
2022-10-04T12:11:35.770Z,71.5
2022-10-04T12:12:42.060Z,70.5
2022-10-04T12:13:47.337Z,69.5
2022-10-04T12:14:53.606Z,71
2022-10-04T12:15:59.974Z,72
2022-10-04T12:17:06.190Z,73.5
2022-10-04T12:18:12.457Z,69.5
2022-10-04T12:19:18.689Z,70.5
2022-10-04T12:20:24.969Z,68.5
2022-10-04T12:21:31.308Z,73
2022-10-04T12:22:37.545Z,71.5
2022-10-04T12:23:43.790Z,72
2022-10-04T12:24:50.063Z,71
2022-10-04T12:25:56.323Z,71.5
2022-10-04T12:27:02.600Z,69
2022-10-04T12:28:07.889Z,70
2022-10-04T12:29:14.195Z,71.5
2022-10-04T12:30:20.429Z,69.5
2022-10-04T12:31:26.736Z,68
2022-10-04T12:32:32.977Z,72.5
2022-10-04T12:33:39.280Z,68
2022-10-04T12:34:45.580Z,68
2022-10-04T12:35:51.834Z,67
2022-10-04T12:36:58.062Z,67.5
2022-10-04T12:38:04.336Z,66.5
2022-10-04T12:39:10.659Z,67
2022-10-04T12:40:16.878Z,65
2022-10-04T12:41:23.154Z,68
2022-10-04T12:42:28.441Z,66
2022-10-04T12:43:34.751Z,68
2022-10-04T12:44:41.015Z,64
2022-10-04T12:45:47.256Z,64.5
2022-10-04T12:46:53.653Z,65.5
2022-10-04T12:47:59.880Z,70
2022-10-04T12:49:06.133Z,67
2022-10-04T12:50:12.349Z,69.5
2022-10-04T12:51:18.622Z,68
2022-10-04T12:52:24.897Z,65.5
2022-10-04T12:53:31.159Z,65
2022-10-04T12:54:37.439Z,66
2022-10-04T12:55:43.790Z,65.5
2022-10-04T12:56:49.030Z,66
2022-10-04T12:57:55.345Z,65
2022-10-04T12:59:01.589Z,65
2022-10-04T13:00:07.810Z,67.5
2022-10-04T13:01:14.082Z,65
2022-10-04T13:02:20.361Z,65
2022-10-04T13:03:26.631Z,64
2022-10-04T13:04:32.907Z,64.5
2022-10-04T13:05:39.178Z,64.5
2022-10-04T13:06:45.477Z,66.5
2022-10-04T13:07:51.721Z,65.5
2022-10-04T13:08:57.994Z,66
2022-10-04T13:10:04.261Z,69.5
2022-10-04T13:11:09.597Z,66
2022-10-04T13:12:15.842Z,68
2022-10-04T13:13:22.108Z,68.5
2022-10-04T13:14:28.385Z,69
2022-10-04T13:15:34.633Z,66.5
2022-10-04T13:16:40.904Z,64.5
2022-10-04T13:17:47.181Z,69.5
2022-10-04T13:18:53.451Z,67
2022-10-04T13:19:58.766Z,67
2022-10-04T13:21:04.047Z,66
2022-10-04T13:22:09.343Z,68
2022-10-04T13:23:14.685Z,67
2022-10-04T13:24:20.955Z,66
2022-10-04T13:25:27.193Z,65
2022-10-04T13:26:33.443Z,68
2022-10-04T13:27:39.722Z,64
2022-10-04T13:28:46.059Z,66
2022-10-04T13:29:52.259Z,66.5
2022-10-04T13:30:58.534Z,69.5
2022-10-04T13:32:04.860Z,66.5
2022-10-04T13:33:11.077Z,70.5
2022-10-04T13:34:17.345Z,68.5
2022-10-04T13:35:23.674Z,65.5
2022-10-04T13:36:29.954Z,63
2022-10-04T13:37:35.178Z,66
2022-10-04T13:38:41.463Z,67
2022-10-04T13:39:47.721Z,67
2022-10-04T13:40:53.995Z,66.5
2022-10-04T13:42:00.384Z,67
2022-10-04T13:43:06.550Z,66.5
2022-10-04T13:44:12.814Z,62.5
2022-10-04T13:45:18.162Z,66
2022-10-04T13:46:23.395Z,69.5
2022-10-04T13:47:29.671Z,69
2022-10-04T13:48:34.965Z,66
2022-10-04T13:49:40.261Z,66.5
2022-10-04T13:50:46.558Z,64.5
2022-10-04T13:51:52.821Z,68
2022-10-04T13:52:59.079Z,65.5
2022-10-04T13:54:05.366Z,67
2022-10-04T13:55:11.677Z,66.5
2022-10-04T13:56:17.912Z,65.5
2022-10-04T13:57:24.198Z,64.5
2022-10-04T13:58:30.511Z,65.5
2022-10-04T13:59:36.730Z,67
2022-10-04T14:00:42.980Z,65.5
2022-10-04T14:01:49.284Z,67.5
2022-10-04T14:02:55.531Z,65.5
2022-10-04T14:04:00.856Z,64.5
2022-10-04T14:05:07.083Z,68
2022-10-04T14:06:13.352Z,69
2022-10-04T14:07:19.626Z,67
2022-10-04T14:08:25.889Z,65.5
2022-10-04T14:09:32.167Z,66
2022-10-04T14:10:38.444Z,66
2022-10-04T14:11:44.828Z,66.5
2022-10-04T14:12:51.129Z,65
2022-10-04T14:13:57.263Z,65.5
2022-10-04T14:15:03.577Z,67
2022-10-04T14:16:09.880Z,67.5
2022-10-04T14:17:16.156Z,68.5
2022-10-04T14:18:22.449Z,67.5
2022-10-04T14:19:27.627Z,73
2022-10-04T14:20:33.922Z,70
2022-10-04T14:21:40.328Z,68
2022-10-04T14:22:46.480Z,69
2022-10-04T14:23:52.716Z,66
2022-10-04T14:24:58.985Z,69
2022-10-04T14:26:05.256Z,68.5
2022-10-04T14:27:10.647Z,70
2022-10-04T14:28:15.918Z,67.5
2022-10-04T14:29:21.184Z,66
2022-10-04T14:30:26.448Z,65.5
2022-10-04T14:31:32.808Z,66.5
2022-10-04T14:32:38.999Z,69.5
2022-10-04T14:33:45.251Z,71
2022-10-04T14:34:51.576Z,67
2022-10-04T14:35:56.863Z,71.5
2022-10-04T14:37:03.149Z,72
2022-10-04T14:38:09.388Z,69.5
2022-10-04T14:39:15.745Z,70
2022-10-04T14:40:21.903Z,68.5
2022-10-04T14:41:28.175Z,68.5
2022-10-04T14:42:34.449Z,70.5
2022-10-04T14:43:40.744Z,70.5
2022-10-04T14:44:47.015Z,72
2022-10-04T14:45:53.262Z,72
2022-10-04T14:46:59.587Z,70
2022-10-04T14:48:05.815Z,72.5
2022-10-04T14:49:12.080Z,72
2022-10-04T14:50:17.368Z,72
2022-10-04T14:51:23.638Z,70.5
2022-10-04T14:52:29.934Z,70.5
2022-10-04T14:53:36.187Z,73
2022-10-04T14:54:42.474Z,73
2022-10-04T14:55:48.774Z,72
2022-10-04T14:56:55.100Z,72
2022-10-04T14:58:01.317Z,72.5
2022-10-04T14:59:07.581Z,72.5
2022-10-04T15:00:13.812Z,74.5
2022-10-04T15:01:20.089Z,73
2022-10-04T15:02:26.382Z,73
2022-10-04T15:03:32.657Z,73.5
2022-10-04T15:04:37.928Z,76.5
2022-10-04T15:05:44.212Z,74
2022-10-04T15:06:50.498Z,75.5
2022-10-04T15:07:56.792Z,75
2022-10-04T15:09:03.029Z,72.5